createdAt,value
2023-05-18T00:02:52.409Z,8.96
2023-05-18T00:08:01.546Z,9.13
2023-05-18T00:13:10.066Z,10.50
2023-05-18T00:18:19.355Z,9.43
2023-05-18T00:23:28.233Z,9.78
2023-05-18T00:28:37.711Z,9.86
2023-05-18T00:33:46.813Z,10.43
2023-05-18T00:38:56.115Z,10.25
2023-05-18T00:44:05.338Z,7.92
2023-05-18T00:49:14.300Z,9.72
2023-05-18T00:59:32.295Z,9.92
2023-05-18T01:04:40.984Z,9.22
2023-05-18T01:09:49.728Z,9.76
2023-05-18T01:14:58.835Z,7.60
2023-05-18T01:20:07.794Z,10.05
2023-05-18T01:25:16.289Z,9.61
2023-05-18T01:30:25.605Z,9.90
2023-05-18T01:35:34.364Z,9.89
2023-05-18T01:45:52.834Z,9.58
2023-05-18T01:51:02.428Z,9.68
2023-05-18T01:56:11.311Z,9.47
2023-05-18T02:01:20.581Z,10.98
2023-05-18T02:06:29.153Z,9.77
2023-05-18T02:11:38.163Z,10.54
2023-05-18T02:16:47.160Z,9.49
2023-05-18T02:21:55.746Z,10.16
2023-05-18T02:27:05.088Z,10.05
2023-05-18T02:32:14.609Z,10.42
2023-05-18T02:37:23.570Z,10.80
2023-05-18T02:42:32.424Z,10.86
2023-05-18T02:47:41.308Z,9.90
2023-05-18T02:52:50.692Z,10.75
2023-05-18T02:57:59.943Z,9.41
2023-05-18T03:03:09.246Z,11.15
2023-05-18T03:08:17.984Z,9.78
2023-05-18T03:13:27.003Z,11.01
2023-05-18T03:18:35.955Z,11.21
2023-05-18T03:23:44.920Z,12.92
2023-05-18T03:28:53.625Z,11.58
2023-05-18T03:34:03.006Z,9.02
2023-05-18T03:39:11.824Z,10.94
2023-05-18T03:44:20.765Z,9.31
2023-05-18T03:49:29.586Z,12.13
2023-05-18T03:54:38.542Z,17.63
2023-05-18T03:59:46.788Z,11.10
2023-05-18T04:04:58.975Z,10.34
2023-05-18T04:09:57.436Z,11.07
2023-05-18T04:20:15.115Z,10.73
2023-05-18T04:25:24.087Z,12.86
2023-05-18T04:35:42.978Z,9.85
2023-05-18T04:40:51.646Z,9.54
2023-05-18T04:56:17.856Z,10.12
2023-05-18T05:01:26.376Z,10.75
2023-05-18T05:21:55.590Z,10.61
2023-05-18T05:32:13.311Z,9.26
2023-05-18T05:52:50.128Z,13.68
2023-05-18T05:57:59.100Z,14.75
2023-05-18T06:03:07.715Z,11.97
2023-05-18T06:13:28.874Z,10.73
2023-05-18T06:18:27.816Z,10.15
2023-05-18T06:33:53.794Z,9.42
2023-05-18T06:44:11.949Z,11.78
2023-05-18T06:49:21.032Z,10.34
2023-05-18T06:59:39.563Z,15.27
2023-05-18T07:04:49.008Z,12.75
2023-05-18T07:09:58.300Z,12.76
2023-05-18T07:15:07.130Z,12.82
2023-05-18T07:20:16.183Z,13.32
2023-05-18T07:25:24.891Z,14.13
2023-05-18T07:30:33.906Z,15.12
2023-05-18T07:35:43.205Z,14.46
2023-05-18T07:40:52.275Z,13.58
2023-05-18T07:46:00.961Z,11.45
2023-05-18T07:51:10.172Z,10.50
2023-05-18T07:56:19.308Z,10.97
2023-05-18T08:01:28.277Z,12.96
2023-05-18T08:06:37.159Z,13.05
2023-05-18T08:11:46.698Z,11.37
2023-05-18T08:16:55.223Z,12.85
2023-05-18T08:22:04.574Z,14.35
2023-05-18T08:27:13.299Z,18.52
2023-05-18T08:32:22.693Z,25.15
2023-05-18T08:37:31.460Z,26.68
2023-05-18T08:42:49.517Z,22.49
2023-05-18T08:47:51.852Z,27.00
2023-05-18T08:52:50.715Z,32.59
2023-05-18T08:57:59.516Z,17.88
2023-05-18T09:03:08.845Z,18.23
2023-05-18T09:08:17.722Z,19.57
2023-05-18T09:13:27.033Z,16.69
2023-05-18T09:18:35.466Z,15.76
2023-05-18T09:23:44.564Z,16.22
2023-05-18T09:28:53.695Z,19.40
2023-05-18T09:34:02.714Z,25.23
2023-05-18T09:39:11.377Z,27.75
2023-05-18T09:44:20.567Z,30.25
2023-05-18T09:49:29.572Z,31.39
2023-05-18T09:54:38.370Z,31.93
2023-05-18T09:59:47.081Z,36.85
2023-05-18T10:04:56.504Z,32.82
2023-05-18T10:10:07.752Z,34.93
2023-05-18T10:15:14.652Z,32.87
2023-05-18T10:20:23.357Z,29.49
2023-05-18T10:25:33.281Z,26.77
2023-05-18T10:30:42.512Z,29.10
2023-05-18T10:35:51.746Z,25.01
2023-05-18T10:41:00.558Z,24.09
2023-05-18T10:46:10.227Z,28.30
2023-05-18T10:51:19.321Z,24.29
2023-05-18T10:56:28.834Z,28.54
2023-05-18T11:01:37.681Z,29.84
2023-05-18T11:06:49.140Z,28.79
2023-05-18T11:11:48.101Z,26.55
2023-05-18T11:16:56.867Z,26.65
2023-05-18T11:22:05.396Z,25.21
2023-05-18T11:27:15.010Z,22.09
2023-05-18T11:32:29.902Z,21.34
2023-05-18T11:37:32.109Z,20.88
2023-05-18T11:42:41.141Z,22.64
2023-05-18T11:47:50.469Z,23.52
2023-05-18T11:52:59.050Z,27.24
2023-05-18T11:58:08.259Z,25.66
2023-05-18T12:03:17.398Z,29.74
2023-05-18T12:08:26.034Z,23.65
2023-05-18T12:13:34.696Z,23.34
2023-05-18T12:18:44.290Z,22.28
2023-05-18T12:23:53.463Z,25.79
2023-05-18T12:29:02.347Z,23.13
2023-05-18T12:34:11.220Z,26.80
2023-05-18T12:39:20.406Z,26.29
2023-05-18T12:44:29.444Z,27.21
2023-05-18T12:49:39.036Z,28.77
2023-05-18T12:54:47.822Z,29.14
2023-05-18T12:59:57.122Z,29.85
2023-05-18T13:05:05.824Z,30.01
2023-05-18T13:10:15.036Z,39.27
2023-05-18T13:15:23.705Z,35.04
2023-05-18T13:20:35.751Z,32.03
2023-05-18T13:25:41.956Z,31.09
2023-05-18T13:35:52.933Z,30.35
2023-05-18T13:41:02.048Z,26.60
2023-05-18T13:46:11.207Z,28.97
2023-05-18T13:56:21.887Z,23.98
2023-05-18T14:01:32.159Z,22.09
2023-05-18T14:06:30.743Z,20.87
2023-05-18T14:11:40.188Z,17.88
2023-05-18T14:16:49.147Z,19.32
2023-05-18T14:21:58.353Z,23.82
2023-05-18T14:32:08.847Z,20.32
2023-05-18T14:37:17.869Z,22.39
2023-05-18T14:42:27.095Z,20.99
2023-05-18T14:52:37.023Z,22.90
2023-05-18T14:57:45.767Z,24.25
2023-05-18T15:02:55.791Z,23.35
2023-05-18T15:08:04.500Z,22.21
2023-05-18T15:13:13.206Z,23.77
2023-05-18T15:18:21.724Z,22.99
2023-05-18T15:23:31.086Z,23.19
2023-05-18T15:28:40.002Z,23.82
2023-05-18T15:33:49.487Z,22.22
2023-05-18T15:38:58.464Z,22.22
2023-05-18T15:44:07.860Z,22.22
2023-05-18T15:54:18.168Z,21.31
2023-05-18T15:59:27.206Z,22.88
2023-05-18T16:04:36.327Z,21.19
2023-05-18T16:14:46.326Z,20.19
2023-05-18T16:29:58.628Z,17.03
2023-05-18T16:35:07.735Z,17.01
2023-05-18T16:45:18.360Z,15.97
2023-05-18T17:00:30.771Z,13.86
2023-05-18T17:05:40.697Z,14.12
2023-05-18T17:10:40.405Z,15.44
2023-05-18T17:15:50.435Z,13.30
2023-05-18T17:26:06.702Z,11.67
2023-05-18T17:31:09.521Z,12.17
2023-05-18T17:41:19.547Z,11.95
2023-05-18T17:46:29.123Z,12.94
2023-05-18T18:01:41.101Z,15.32
2023-05-18T18:11:58.491Z,17.23
2023-05-18T18:17:08.562Z,15.67
2023-05-18T18:22:07.512Z,15.08
2023-05-18T18:27:17.125Z,13.09
2023-05-18T18:37:28.316Z,12.65
2023-05-18T18:42:37.300Z,12.34
2023-05-18T18:47:47.242Z,13.24
2023-05-18T18:52:56.538Z,14.73
2023-05-18T18:58:06.384Z,14.79
2023-05-18T19:03:16.004Z,13.70
2023-05-18T19:08:26.175Z,16.13
2023-05-18T19:13:24.735Z,15.23
2023-05-18T19:18:33.546Z,15.21
2023-05-18T19:23:42.105Z,15.90
2023-05-18T19:28:51.185Z,15.57
2023-05-18T19:33:59.706Z,15.46
2023-05-18T19:39:08.465Z,14.21
2023-05-18T19:44:16.754Z,15.34
2023-05-18T19:49:25.579Z,16.00
2023-05-18T19:54:34.246Z,15.24
2023-05-18T19:59:43.386Z,15.57
2023-05-18T20:04:52.672Z,15.79
2023-05-18T20:10:01.490Z,14.88
2023-05-18T20:20:11.842Z,14.58
2023-05-18T20:25:20.477Z,12.89
2023-05-18T20:30:29.354Z,11.51
2023-05-18T20:35:38.040Z,9.63
2023-05-18T20:40:47.250Z,10.87
2023-05-18T20:45:55.862Z,10.53
2023-05-18T20:56:05.981Z,11.04
2023-05-18T21:01:15.265Z,10.83
2023-05-18T21:11:25.314Z,11.91
2023-05-18T21:16:34.143Z,11.68
2023-05-18T21:21:43.521Z,9.17
2023-05-18T21:26:52.142Z,9.91
2023-05-18T21:32:01.257Z,10.88
2023-05-18T21:37:10.169Z,9.42
2023-05-18T21:42:19.218Z,10.62
2023-05-18T21:47:27.987Z,8.88
2023-05-18T21:52:37.498Z,10.03
2023-05-18T21:57:46.136Z,10.92
2023-05-18T22:02:55.493Z,10.96
2023-05-18T22:08:04.087Z,10.97
2023-05-18T22:23:16.602Z,9.61
2023-05-18T22:38:28.946Z,10.19
2023-05-18T22:48:39.665Z,10.87
2023-05-18T22:53:48.869Z,9.35
2023-05-18T23:09:01.200Z,8.41
2023-05-18T23:39:18.595Z,8.54
2023-05-18T23:44:27.588Z,10.02
2023-05-18T23:54:38.105Z,8.60
2023-05-18T23:59:46.307Z,9.68
